createdAt,value
2017-11-05T00:00:57.081Z,34.08
2017-11-05T00:03:23.714Z,34.00
2017-11-05T00:05:50.326Z,33.95
2017-11-05T00:08:16.938Z,31.70
2017-11-05T00:10:43.566Z,31.27
2017-11-05T00:13:10.177Z,30.23
2017-11-05T00:15:36.783Z,30.12
2017-11-05T00:18:03.433Z,29.77
2017-11-05T00:20:30.043Z,30.50
2017-11-05T00:22:56.662Z,29.05
2017-11-05T00:25:23.266Z,29.02
2017-11-05T00:27:49.878Z,29.92
2017-11-05T00:30:16.506Z,30.65
2017-11-05T00:32:43.115Z,30.42
2017-11-05T00:35:09.727Z,30.73
2017-11-05T00:37:36.444Z,29.80
2017-11-05T00:40:03.045Z,28.02
2017-11-05T00:42:29.726Z,30.40
2017-11-05T00:44:56.362Z,29.52
2017-11-05T00:47:22.978Z,30.08
2017-11-05T00:49:49.608Z,30.75
2017-11-05T00:52:16.209Z,30.52
2017-11-05T00:54:42.823Z,29.00
2017-11-05T00:57:09.450Z,32.00
2017-11-05T00:59:36.085Z,28.80
2017-11-05T01:02:02.734Z,28.55
2017-11-05T01:04:29.350Z,28.65
2017-11-05T01:06:55.967Z,29.10
2017-11-05T01:09:22.654Z,27.25
2017-11-05T01:11:49.285Z,29.23
2017-11-05T01:14:15.894Z,30.92
2017-11-05T01:16:42.530Z,32.33
2017-11-05T01:19:09.216Z,30.40
2017-11-05T01:21:35.831Z,29.50
2017-11-05T01:24:02.475Z,31.37
2017-11-05T01:26:29.079Z,28.83
2017-11-05T01:28:55.685Z,29.02
2017-11-05T01:31:22.306Z,29.60
2017-11-05T01:33:48.939Z,27.60
2017-11-05T01:36:15.551Z,28.40
2017-11-05T01:38:42.174Z,28.45
2017-11-05T01:41:08.794Z,26.55
2017-11-05T01:43:35.421Z,27.15
2017-11-05T01:46:02.039Z,26.10
2017-11-05T01:48:28.649Z,26.30
2017-11-05T01:50:55.278Z,27.92
2017-11-05T01:53:21.994Z,27.45
2017-11-05T01:55:48.602Z,25.35
2017-11-05T01:58:15.335Z,25.67
2017-11-05T02:00:41.941Z,27.65
2017-11-05T02:03:08.606Z,24.80
2017-11-05T02:05:35.246Z,25.23
2017-11-05T02:08:01.850Z,24.58
2017-11-05T02:10:28.478Z,24.63
2017-11-05T02:12:55.105Z,26.25
2017-11-05T02:15:21.705Z,25.37
2017-11-05T02:17:48.321Z,27.20
2017-11-05T02:20:14.982Z,25.33
2017-11-05T02:22:41.598Z,25.00
2017-11-05T02:25:08.257Z,26.35
2017-11-05T02:27:34.894Z,25.95
2017-11-05T02:30:01.511Z,26.25
2017-11-05T02:32:28.119Z,25.35
2017-11-05T02:34:54.753Z,25.40
2017-11-05T02:37:21.450Z,25.42
2017-11-05T02:39:48.071Z,25.58
2017-11-05T02:42:14.706Z,27.00
2017-11-05T02:44:41.318Z,27.40
2017-11-05T02:47:07.925Z,27.90
2017-11-05T02:49:34.554Z,25.37
2017-11-05T02:52:01.189Z,27.60
2017-11-05T02:54:27.802Z,27.05
2017-11-05T02:56:54.464Z,26.95
2017-11-05T02:59:21.065Z,27.62
2017-11-05T03:01:47.673Z,27.10
2017-11-05T03:04:14.302Z,28.70
2017-11-05T03:06:40.913Z,25.90
2017-11-05T03:09:07.523Z,27.55
2017-11-05T03:11:34.146Z,27.50
2017-11-05T03:14:00.763Z,29.52
2017-11-05T03:16:27.479Z,26.42
2017-11-05T03:18:54.093Z,27.10
2017-11-05T03:21:20.710Z,24.92
2017-11-05T03:23:47.393Z,26.40
2017-11-05T03:26:14.004Z,26.58
2017-11-05T03:28:40.670Z,27.58
2017-11-05T03:31:07.351Z,25.60
2017-11-05T03:33:33.957Z,27.62
2017-11-05T03:36:00.573Z,25.85
2017-11-05T03:38:27.210Z,28.10
2017-11-05T03:40:53.882Z,28.52
2017-11-05T03:43:20.605Z,27.45
2017-11-05T03:45:47.229Z,26.10
2017-11-05T03:48:13.826Z,26.33
2017-11-05T03:50:40.453Z,29.37
2017-11-05T03:53:07.078Z,27.87
2017-11-05T03:55:33.703Z,29.30
2017-11-05T03:58:00.327Z,26.85
2017-11-05T04:00:27.229Z,28.55
2017-11-05T04:02:53.838Z,27.35
2017-11-05T04:05:20.566Z,27.27
2017-11-05T04:07:47.246Z,27.77
2017-11-05T04:10:13.854Z,30.00
2017-11-05T04:12:40.474Z,29.73
2017-11-05T04:15:07.086Z,28.08
2017-11-05T04:17:33.702Z,26.98
2017-11-05T04:20:00.326Z,26.12
2017-11-05T04:22:26.933Z,30.37
2017-11-05T04:24:53.537Z,28.65
2017-11-05T04:27:20.169Z,25.83
2017-11-05T04:29:46.784Z,26.65
2017-11-05T04:32:13.393Z,25.02
2017-11-05T04:34:40.023Z,24.87
2017-11-05T04:37:06.784Z,26.62
2017-11-05T04:39:33.397Z,25.70
2017-11-05T04:42:00.030Z,25.05
2017-11-05T04:44:26.654Z,25.95
2017-11-05T04:46:53.266Z,26.80
2017-11-05T04:49:19.889Z,27.00
2017-11-05T04:51:46.522Z,26.87
2017-11-05T04:54:13.138Z,25.02
2017-11-05T04:56:39.765Z,27.02
2017-11-05T04:59:06.374Z,25.10
2017-11-05T05:01:32.991Z,24.83
2017-11-05T05:03:59.619Z,25.02
2017-11-05T05:06:26.237Z,27.87
2017-11-05T05:08:52.842Z,25.48
2017-11-05T05:11:19.469Z,25.48
2017-11-05T05:13:46.091Z,25.62
2017-11-05T05:16:12.693Z,27.45
2017-11-05T05:18:39.321Z,25.42
2017-11-05T05:21:05.966Z,27.55
2017-11-05T05:23:32.576Z,26.90
2017-11-05T05:25:59.198Z,25.42
2017-11-05T05:28:25.806Z,27.40
2017-11-05T05:30:52.433Z,25.65
2017-11-05T05:33:19.065Z,26.10
2017-11-05T05:35:45.686Z,24.15
2017-11-05T05:38:12.297Z,27.65
2017-11-05T05:40:38.973Z,24.87
2017-11-05T05:43:05.581Z,24.30
2017-11-05T05:45:32.194Z,26.08
2017-11-05T05:47:58.817Z,25.17
2017-11-05T05:50:25.426Z,25.90
2017-11-05T05:52:52.046Z,25.83
2017-11-05T05:55:18.670Z,25.95
2017-11-05T05:57:45.278Z,25.23
2017-11-05T06:00:11.901Z,24.87
2017-11-05T06:02:38.509Z,24.80
2017-11-05T06:05:05.157Z,26.45
2017-11-05T06:07:31.843Z,26.20
2017-11-05T06:09:58.558Z,27.08
2017-11-05T06:12:26.206Z,24.08
2017-11-05T06:14:52.832Z,27.13
2017-11-05T06:17:19.482Z,24.67
2017-11-05T06:19:46.125Z,23.55
2017-11-05T06:22:12.730Z,23.40
2017-11-05T06:24:39.342Z,25.70
2017-11-05T06:27:05.979Z,23.00
2017-11-05T06:29:32.582Z,24.58
2017-11-05T06:31:59.194Z,23.35
2017-11-05T06:34:25.814Z,23.25
2017-11-05T06:36:52.493Z,21.05
2017-11-05T06:39:19.106Z,21.77
2017-11-05T06:41:45.726Z,23.00
2017-11-05T06:44:12.338Z,21.83
2017-11-05T06:46:38.950Z,23.00
2017-11-05T06:49:05.576Z,22.13
2017-11-05T06:51:32.193Z,23.73
2017-11-05T06:53:58.805Z,22.77
2017-11-05T06:56:25.436Z,21.20
2017-11-05T06:58:52.050Z,21.92
2017-11-05T07:01:18.653Z,24.92
2017-11-05T07:03:45.286Z,21.23
2017-11-05T07:06:11.901Z,21.05
2017-11-05T07:08:38.515Z,22.62
2017-11-05T07:11:05.145Z,23.20
2017-11-05T07:13:31.763Z,23.70
2017-11-05T07:15:58.370Z,25.12
2017-11-05T07:18:25.050Z,23.08
2017-11-05T07:20:51.668Z,20.52
2017-11-05T07:23:18.273Z,21.27
2017-11-05T07:25:44.966Z,21.30
2017-11-05T07:28:11.651Z,21.17
2017-11-05T07:30:38.264Z,20.65
2017-11-05T07:33:04.869Z,24.63
2017-11-05T07:35:31.530Z,19.52
2017-11-05T07:37:58.129Z,21.45
2017-11-05T07:40:24.745Z,20.98
2017-11-05T07:42:51.383Z,21.70
2017-11-05T07:45:17.999Z,20.45
2017-11-05T07:47:44.604Z,23.65
2017-11-05T07:50:11.230Z,23.80
2017-11-05T07:52:37.840Z,20.62
2017-11-05T07:55:04.445Z,22.37
2017-11-05T07:57:31.074Z,22.10
2017-11-05T07:59:57.678Z,21.00
2017-11-05T08:02:24.289Z,20.62
2017-11-05T08:04:50.910Z,20.80
2017-11-05T08:07:17.526Z,19.83
2017-11-05T08:09:44.154Z,20.62
2017-11-05T08:12:10.770Z,19.40
2017-11-05T08:14:37.385Z,20.12
2017-11-05T08:17:04.007Z,20.10
2017-11-05T08:19:30.618Z,18.65
2017-11-05T08:21:57.229Z,20.83
2017-11-05T08:24:23.861Z,21.62
2017-11-05T08:26:50.470Z,22.42
2017-11-05T08:29:17.078Z,20.02
2017-11-05T08:31:43.698Z,20.25
2017-11-05T08:34:10.314Z,19.98
2017-11-05T08:36:36.917Z,20.05
2017-11-05T08:39:03.543Z,21.05
2017-11-05T08:41:30.150Z,21.30
2017-11-05T08:43:56.778Z,19.92
2017-11-05T08:46:23.418Z,24.05
2017-11-05T08:48:50.014Z,23.30
2017-11-05T08:51:16.638Z,22.42
2017-11-05T08:53:43.245Z,21.77
2017-11-05T08:56:09.881Z,20.58
2017-11-05T08:58:36.486Z,21.92
2017-11-05T09:01:03.098Z,19.65
2017-11-05T09:03:29.820Z,19.42
2017-11-05T09:05:56.424Z,18.65
2017-11-05T09:08:23.050Z,18.30
2017-11-05T09:10:49.721Z,18.75
2017-11-05T09:13:16.334Z,18.60
2017-11-05T09:15:42.968Z,17.35
2017-11-05T09:18:09.582Z,17.45
2017-11-05T09:20:36.194Z,18.35
2017-11-05T09:23:02.826Z,17.42
2017-11-05T09:25:29.462Z,18.35
2017-11-05T09:27:56.076Z,20.73
2017-11-05T09:30:22.698Z,16.77
2017-11-05T09:32:49.310Z,16.80
2017-11-05T09:35:15.922Z,16.27
2017-11-05T09:37:42.554Z,16.62
2017-11-05T09:40:09.166Z,17.37
2017-11-05T09:42:35.834Z,19.45
2017-11-05T09:45:02.458Z,16.35
2017-11-05T09:47:29.110Z,18.58
2017-11-05T09:49:55.730Z,17.17
2017-11-05T09:52:22.354Z,17.30
2017-11-05T09:54:48.962Z,17.37
2017-11-05T09:57:15.645Z,18.20
2017-11-05T09:59:42.259Z,17.02
2017-11-05T10:02:08.883Z,18.25
2017-11-05T10:04:35.505Z,17.20
2017-11-05T10:07:02.114Z,17.00
2017-11-05T10:09:28.726Z,17.10
2017-11-05T10:11:55.446Z,16.67
2017-11-05T10:14:22.142Z,15.52
2017-11-05T10:16:48.751Z,15.73
2017-11-05T10:19:15.377Z,15.07
2017-11-05T10:21:41.996Z,17.35
2017-11-05T10:24:08.630Z,17.08
2017-11-05T10:26:35.234Z,16.12
2017-11-05T10:29:01.858Z,16.87
2017-11-05T10:31:28.518Z,16.33
2017-11-05T10:33:55.130Z,15.25
2017-11-05T10:36:21.793Z,15.93
2017-11-05T10:38:48.420Z,15.02
2017-11-05T10:41:15.039Z,16.15
2017-11-05T10:43:41.711Z,15.60
2017-11-05T10:46:08.451Z,16.73
2017-11-05T10:48:35.067Z,17.35
2017-11-05T10:51:01.672Z,17.77
2017-11-05T10:53:28.303Z,19.17
2017-11-05T10:55:55.001Z,19.40
2017-11-05T10:58:21.644Z,17.62
2017-11-05T11:00:48.270Z,18.95
2017-11-05T11:03:15.097Z,20.62
2017-11-05T11:05:41.725Z,18.77
2017-11-05T11:08:08.346Z,19.73
2017-11-05T11:10:35.050Z,19.27
2017-11-05T11:13:01.790Z,19.83
2017-11-05T11:15:28.881Z,17.75
2017-11-05T11:17:56.442Z,19.15
2017-11-05T11:20:23.264Z,18.15
2017-11-05T11:22:51.401Z,18.25
2017-11-05T11:25:18.148Z,18.67
2017-11-05T11:27:45.273Z,19.85
2017-11-05T11:30:12.503Z,18.42
2017-11-05T11:32:41.019Z,18.90
2017-11-05T11:35:08.461Z,18.73
2017-11-05T11:37:35.776Z,20.17
2017-11-05T11:40:07.217Z,19.45
2017-11-05T11:42:39.198Z,18.85
2017-11-05T11:45:06.029Z,19.15
2017-11-05T11:47:32.805Z,17.55
2017-11-05T11:49:59.467Z,18.80
2017-11-05T11:52:26.149Z,20.15
2017-11-05T11:54:52.785Z,19.60
2017-11-05T11:57:19.394Z,19.35
2017-11-05T11:59:46.019Z,20.50
2017-11-05T12:02:12.639Z,20.08
2017-11-05T12:04:39.263Z,24.67
2017-11-05T12:07:05.874Z,21.98
2017-11-05T12:09:32.497Z,21.42
2017-11-05T12:11:59.110Z,21.92
2017-11-05T12:14:25.739Z,22.67
2017-11-05T12:16:52.425Z,19.60
2017-11-05T12:19:19.109Z,20.52
2017-11-05T12:21:45.741Z,19.42
2017-11-05T12:24:12.341Z,20.33
2017-11-05T12:26:38.954Z,18.12
2017-11-05T12:29:05.594Z,22.92
2017-11-05T12:31:32.203Z,19.80
2017-11-05T12:33:58.898Z,19.83
2017-11-05T12:36:25.526Z,21.02
2017-11-05T12:38:52.149Z,19.95
2017-11-05T12:41:18.775Z,19.75
2017-11-05T12:43:45.409Z,19.27
2017-11-05T12:46:12.021Z,22.85
2017-11-05T12:48:38.635Z,20.15
2017-11-05T12:51:05.262Z,21.30
2017-11-05T12:53:31.869Z,21.45
2017-11-05T12:55:58.475Z,21.60
2017-11-05T12:58:25.102Z,20.27
2017-11-05T13:00:51.707Z,20.52
2017-11-05T13:03:18.323Z,21.55
2017-11-05T13:05:44.953Z,20.65
2017-11-05T13:08:11.558Z,20.17
2017-11-05T13:10:38.169Z,24.17
2017-11-05T13:13:04.794Z,24.75
2017-11-05T13:15:31.414Z,19.12
2017-11-05T13:17:58.097Z,13.80
2017-11-05T13:20:24.707Z,26.23
2017-11-05T13:22:51.318Z,12.85
2017-11-05T13:25:17.942Z,21.55
2017-11-05T13:27:44.649Z,10.82
2017-11-05T13:30:11.253Z,9.63
2017-11-05T13:32:37.876Z,12.37
2017-11-05T13:35:04.483Z,15.88
2017-11-05T13:37:31.207Z,6.18
2017-11-05T13:39:57.857Z,6.43
2017-11-05T13:42:24.481Z,5.00
2017-11-05T13:44:51.101Z,5.28
2017-11-05T13:47:17.703Z,4.97
2017-11-05T13:49:44.304Z,3.72
2017-11-05T13:52:10.927Z,7.00
2017-11-05T13:54:37.531Z,6.28
2017-11-05T13:57:04.138Z,11.32
2017-11-05T13:59:30.774Z,11.30
2017-11-05T14:01:57.390Z,3.22
2017-11-05T14:04:24.000Z,9.15
2017-11-05T14:06:50.623Z,3.40
2017-11-05T14:09:17.229Z,5.22
2017-11-05T14:11:43.950Z,11.85
2017-11-05T14:14:10.571Z,2.62
2017-11-05T14:16:37.175Z,6.75
2017-11-05T14:19:03.774Z,3.70
2017-11-05T14:21:30.384Z,4.00
2017-11-05T14:23:56.988Z,2.50
2017-11-05T14:26:23.582Z,2.42
2017-11-05T14:28:50.202Z,4.57
2017-11-05T14:31:16.821Z,4.00
2017-11-05T14:33:46.366Z,4.15
2017-11-05T14:36:13.047Z,3.12
2017-11-05T14:38:39.640Z,3.58
2017-11-05T14:41:06.269Z,3.42
2017-11-05T14:43:32.894Z,3.37
2017-11-05T14:45:59.495Z,4.00
2017-11-05T14:48:26.193Z,3.45
2017-11-05T14:50:52.806Z,3.60
2017-11-05T14:53:19.474Z,5.35
2017-11-05T14:55:46.095Z,3.80
2017-11-05T14:58:12.698Z,2.50
2017-11-05T15:00:39.308Z,3.62
2017-11-05T15:03:06.029Z,3.58
2017-11-05T15:05:32.636Z,6.47
2017-11-05T15:07:59.237Z,4.35
2017-11-05T15:10:25.853Z,5.45
2017-11-05T15:12:52.445Z,3.70
2017-11-05T15:15:19.122Z,4.47
2017-11-05T15:17:45.768Z,3.40
2017-11-05T15:20:12.371Z,3.10
2017-11-05T15:22:38.965Z,2.95
2017-11-05T15:25:05.590Z,7.85
2017-11-05T15:27:32.201Z,2.42
2017-11-05T15:29:58.853Z,2.45
2017-11-05T15:32:25.474Z,2.83
2017-11-05T15:34:52.078Z,3.65
2017-11-05T15:37:18.678Z,3.12
2017-11-05T15:39:45.293Z,2.97
2017-11-05T15:42:11.894Z,2.92
2017-11-05T15:44:38.510Z,6.10
2017-11-05T15:47:05.118Z,3.05
2017-11-05T15:49:31.721Z,4.05
2017-11-05T15:51:58.339Z,3.67
2017-11-05T15:54:24.937Z,4.60
2017-11-05T15:56:51.539Z,3.40
2017-11-05T15:59:18.166Z,4.15
2017-11-05T16:01:44.767Z,3.47
2017-11-05T16:04:11.367Z,2.72
2017-11-05T16:06:37.986Z,4.28
2017-11-05T16:09:04.596Z,3.85
2017-11-05T16:11:31.198Z,2.92
2017-11-05T16:13:57.814Z,3.60
2017-11-05T16:16:24.413Z,3.03
2017-11-05T16:18:51.018Z,4.45
2017-11-05T16:21:17.635Z,3.60
2017-11-05T16:23:44.243Z,3.58
2017-11-05T16:26:10.862Z,3.45
2017-11-05T16:28:37.462Z,3.70
2017-11-05T16:31:04.118Z,3.40
2017-11-05T16:33:30.738Z,3.75
2017-11-05T16:35:57.338Z,3.47
2017-11-05T16:38:23.955Z,3.60
2017-11-05T16:40:50.554Z,4.18
2017-11-05T16:43:17.182Z,4.03
2017-11-05T16:45:43.808Z,3.62
2017-11-05T16:48:10.409Z,3.55
2017-11-05T16:50:37.012Z,3.53
2017-11-05T16:53:03.631Z,4.62
2017-11-05T16:55:30.234Z,4.57
2017-11-05T16:57:56.829Z,5.30
2017-11-05T17:00:23.449Z,5.45
2017-11-05T17:02:50.046Z,5.90
2017-11-05T17:05:16.646Z,5.30
2017-11-05T17:07:43.294Z,4.97
2017-11-05T17:10:09.894Z,5.05
2017-11-05T17:12:36.499Z,4.55
2017-11-05T17:15:03.138Z,4.87
2017-11-05T17:17:29.852Z,4.20
2017-11-05T17:19:56.450Z,3.75
2017-11-05T17:22:23.128Z,3.80
2017-11-05T17:24:49.730Z,4.32
2017-11-05T17:27:16.409Z,4.30
2017-11-05T17:29:43.024Z,3.92
2017-11-05T17:32:09.625Z,4.85
2017-11-05T17:34:36.320Z,4.70
2017-11-05T17:37:02.938Z,3.37
2017-11-05T17:39:29.535Z,3.67
2017-11-05T17:41:56.137Z,3.70
2017-11-05T17:44:22.878Z,4.25
2017-11-05T17:46:49.478Z,3.50
2017-11-05T17:49:16.156Z,4.10
2017-11-05T17:51:42.763Z,3.35
2017-11-05T17:54:09.366Z,3.78
2017-11-05T17:56:36.073Z,3.95
2017-11-05T17:59:02.678Z,3.33
2017-11-05T18:01:29.295Z,3.20
2017-11-05T18:03:55.894Z,3.90
2017-11-05T18:06:22.491Z,3.67
2017-11-05T18:08:49.106Z,4.22
2017-11-05T18:11:15.805Z,4.20
2017-11-05T18:13:42.410Z,3.72
2017-11-05T18:16:09.028Z,4.30
2017-11-05T18:18:35.643Z,3.80
2017-11-05T18:21:02.265Z,3.92
2017-11-05T18:23:28.898Z,3.83
2017-11-05T18:25:55.497Z,3.72
2017-11-05T18:28:22.181Z,4.20
2017-11-05T18:30:48.822Z,4.80
2017-11-05T18:33:15.458Z,4.00
2017-11-05T18:35:42.058Z,4.43
2017-11-05T18:38:08.669Z,4.80
2017-11-05T18:40:35.270Z,3.95
2017-11-05T18:43:01.909Z,4.30
2017-11-05T18:45:28.536Z,4.12
2017-11-05T18:47:55.146Z,4.87
2017-11-05T18:50:21.742Z,4.22
2017-11-05T18:52:48.366Z,4.60
2017-11-05T18:55:14.969Z,4.25
2017-11-05T18:57:41.647Z,4.90
2017-11-05T19:00:08.282Z,4.45
2017-11-05T19:02:34.908Z,4.68
2017-11-05T19:05:01.558Z,4.65
2017-11-05T19:07:28.162Z,4.00
2017-11-05T19:09:54.765Z,5.03
2017-11-05T19:12:21.474Z,5.12
2017-11-05T19:14:48.119Z,4.65
2017-11-05T19:17:14.713Z,5.43
2017-11-05T19:19:41.329Z,5.25
2017-11-05T19:22:07.935Z,5.82
2017-11-05T19:24:34.538Z,5.32
2017-11-05T19:27:01.157Z,5.40
2017-11-05T19:29:27.754Z,5.55
2017-11-05T19:31:54.362Z,5.40
2017-11-05T19:34:20.985Z,5.80
2017-11-05T19:36:47.586Z,5.62
2017-11-05T19:39:14.187Z,7.47
2017-11-05T19:41:40.802Z,6.32
2017-11-05T19:44:07.482Z,6.32
2017-11-05T19:46:34.119Z,5.70
2017-11-05T19:49:00.803Z,5.53
2017-11-05T19:51:27.405Z,5.80
2017-11-05T19:53:54.014Z,5.87
2017-11-05T19:56:20.674Z,6.10
2017-11-05T19:58:47.275Z,6.03
2017-11-05T20:01:13.878Z,5.30
2017-11-05T20:03:40.494Z,5.85
2017-11-05T20:06:07.099Z,5.85
2017-11-05T20:08:33.710Z,6.68
2017-11-05T20:11:00.310Z,7.20
2017-11-05T20:13:26.915Z,6.70
2017-11-05T20:15:53.539Z,6.55
2017-11-05T20:18:20.146Z,7.03
2017-11-05T20:20:46.742Z,5.53
2017-11-05T20:23:13.363Z,6.57
2017-11-05T20:25:39.969Z,6.90
2017-11-05T20:28:06.574Z,5.62
2017-11-05T20:30:33.193Z,6.82
2017-11-05T20:32:59.809Z,6.00
2017-11-05T20:35:26.405Z,7.28
2017-11-05T20:37:53.032Z,6.70
2017-11-05T20:40:19.668Z,8.02
2017-11-05T20:42:46.294Z,6.75
2017-11-05T20:45:12.906Z,7.18
2017-11-05T20:47:39.497Z,7.80
2017-11-05T20:50:06.118Z,7.07
2017-11-05T20:52:32.757Z,8.40
2017-11-05T20:54:59.359Z,7.62
2017-11-05T20:57:25.990Z,8.23
2017-11-05T20:59:52.589Z,8.00
2017-11-05T21:02:19.198Z,7.95
2017-11-05T21:04:45.819Z,8.40
2017-11-05T21:07:12.429Z,8.63
2017-11-05T21:09:39.047Z,8.10
2017-11-05T21:12:05.680Z,8.15
2017-11-05T21:14:32.273Z,8.93
2017-11-05T21:16:58.906Z,8.63
2017-11-05T21:19:25.545Z,9.05
2017-11-05T21:21:52.158Z,9.77
2017-11-05T21:24:18.763Z,8.63
2017-11-05T21:26:45.394Z,9.60
2017-11-05T21:29:11.998Z,8.60
2017-11-05T21:31:38.690Z,8.65
2017-11-05T21:34:05.418Z,9.70
2017-11-05T21:36:32.026Z,10.43
2017-11-05T21:38:58.657Z,9.65
2017-11-05T21:41:25.263Z,10.20
2017-11-05T21:43:51.878Z,10.05
2017-11-05T21:46:18.494Z,9.25
2017-11-05T21:48:45.098Z,9.77
2017-11-05T21:51:11.731Z,9.15
2017-11-05T21:53:38.338Z,10.23
2017-11-05T21:56:04.946Z,9.35
2017-11-05T21:58:31.571Z,9.93
2017-11-05T22:00:58.178Z,10.60
2017-11-05T22:03:24.786Z,10.55
2017-11-05T22:05:51.411Z,9.35
2017-11-05T22:08:18.025Z,10.70
2017-11-05T22:10:44.698Z,9.95
2017-11-05T22:13:11.303Z,9.80
2017-11-05T22:15:38.008Z,13.02
2017-11-05T22:18:04.631Z,11.27
2017-11-05T22:20:31.241Z,10.70
2017-11-05T22:22:57.899Z,11.30
2017-11-05T22:25:24.505Z,11.52
2017-11-05T22:27:51.111Z,11.35
2017-11-05T22:30:17.745Z,9.77
2017-11-05T22:32:44.353Z,12.18
2017-11-05T22:35:10.986Z,11.45
2017-11-05T22:37:37.733Z,10.88
2017-11-05T22:40:04.342Z,11.70
2017-11-05T22:42:30.947Z,10.55
2017-11-05T22:44:57.574Z,11.18
2017-11-05T22:47:24.183Z,12.35
2017-11-05T22:49:50.789Z,11.63
2017-11-05T22:52:17.418Z,12.02
2017-11-05T22:54:44.030Z,11.50
2017-11-05T22:57:10.638Z,11.30
2017-11-05T22:59:37.281Z,12.07
2017-11-05T23:02:03.894Z,10.85
2017-11-05T23:04:30.519Z,12.95
2017-11-05T23:06:57.147Z,12.50
2017-11-05T23:09:23.753Z,11.50
2017-11-05T23:11:50.366Z,14.25
2017-11-05T23:14:17.006Z,12.88
2017-11-05T23:16:43.650Z,14.30
2017-11-05T23:19:10.268Z,12.68
2017-11-05T23:21:36.898Z,12.45
2017-11-05T23:24:03.511Z,12.82
2017-11-05T23:26:30.202Z,12.85
2017-11-05T23:28:56.834Z,12.25
2017-11-05T23:31:23.442Z,11.90
2017-11-05T23:33:50.068Z,12.27
2017-11-05T23:36:16.678Z,13.10
2017-11-05T23:38:43.281Z,14.32
2017-11-05T23:41:09.933Z,12.20
2017-11-05T23:43:36.550Z,13.70
2017-11-05T23:46:03.158Z,11.90
2017-11-05T23:48:29.785Z,11.77
2017-11-05T23:50:56.399Z,12.23
2017-11-05T23:53:23.010Z,11.77
2017-11-05T23:55:49.666Z,12.95
2017-11-05T23:58:16.279Z,13.80
